Petersburg, Texas
Current Conditions -  °F | °C
As of 2:53 AM on Monday 24 Nov 2014 (Local Time) from KLBB Reporting Station
Clear Clear  
Wind Chill: 23°   Ceiling: Unl
Heat Index: 29°   Visibility: 10mi
Dew Point: 24°   Wind: 6mph
Humidity: 82%   Direction: 290°WNW
Pressure: 29.98"   Gusts: NA
Location:  33.87°N, 101.6°W
Report Text: KLBB 240853Z 29005KT 10SM CLR M02/M04 A2998 RMK AO2 SLP142 T10171044 53010
Loading
Personal Weather Stations






























Interactive Weather Map New forecast layout! Learn more

10-Day Weather Forecast

Advertisements
Track Severe Weather on mobile